Weather at West Fargo Municipal Airport

Public forecast

Using degrees Fahrenheit for public forecast. Weather courtesy of forecast.io.

Closest aviation weather report (METAR) to West Fargo Municipal Airport

Closest report is Hector International Airport, 4.4 nm (8.1 km) ENE. Retrieved 2021/11/30 14:53 UTC (53 minutes ago):

KFAR 301453Z 31009KT 10SM CLR M01/M04 A3014 RMK AO2 SLP219 T10061044 53011

Closest aviation forecast (TAF) to West Fargo Municipal Airport

Closest forecast is Hector International Airport, 4.4 nm (8.1 km) ENE. Retrieved 2021/11/30 12:36 UTC (3 hours ago):

TAF KFAR 301134Z 3012/0112 33009KT P6SM SCT250 FM302100 18010KT P6SM BKN250 FM010200 18013G22KT P6SM BKN035 WS020/23040KT FM010900 26013KT P6SM SCT200